Time;durP1;ratioP1;P1;durP2;ratioP2;P2;SDS_P1;SDS_P2;PMS_P1;PMS_P2;Temp;Humidity;BMP_temperature;BMP_pressure;BME280_temperature;BME280_humidity;BME280_pressure;Samples;Min_cycle;Max_cycle;Signal;HPM_P1;HPM_P2
2023/08/06 00:01:08;;;;;;;0.45;0.45;;;15.80;99.90;;;;;;5160431;28;20345;-67
2023/08/06 00:03:42;;;;;;;0.40;0.40;;;15.80;99.90;;;;;;5165338;28;20044;-66
2023/08/06 00:06:14;;;;;;;0.65;0.65;;;15.80;99.90;;;;;;5182954;28;20045;-67
2023/08/06 00:08:48;;;;;;;0.52;0.52;;;15.80;99.90;;;;;;5149746;28;20045;-65
2023/08/06 00:11:19;;;;;;;0.50;0.50;;;15.80;99.90;;;;;;5181849;28;20037;-67
2023/08/06 00:13:51;;;;;;;0.60;0.60;;;15.80;99.90;;;;;;5167504;28;20249;-68
2023/08/06 00:16:23;;;;;;;0.40;0.40;;;15.80;99.90;;;;;;5164527;28;20049;-68
2023/08/06 00:18:56;;;;;;;0.65;0.65;;;15.80;99.90;;;;;;5180420;28;20032;-66
2023/08/06 00:21:28;;;;;;;0.63;0.63;;;15.70;99.90;;;;;;5178482;28;20229;-67
2023/08/06 00:24:00;;;;;;;0.50;0.50;;;15.70;99.90;;;;;;5179318;28;20602;-67
2023/08/06 00:26:34;;;;;;;0.65;0.65;;;15.70;99.90;;;;;;5162491;28;20042;-68
2023/08/06 00:29:05;;;;;;;0.77;0.77;;;15.70;99.90;;;;;;5146956;28;20038;-67
2023/08/06 00:31:37;;;;;;;0.60;0.60;;;15.70;99.90;;;;;;5177106;28;20362;-68
2023/08/06 00:34:08;;;;;;;0.60;0.60;;;15.60;99.90;;;;;;5160337;28;20053;-69
2023/08/06 00:36:42;;;;;;;0.50;0.50;;;15.60;99.90;;;;;;5166665;28;20049;-68
2023/08/06 00:39:17;;;;;;;0.50;0.50;;;15.60;99.90;;;;;;5167109;28;20423;-69
2023/08/06 00:41:50;;;;;;;0.50;0.50;;;15.60;99.90;;;;;;5163772;28;20044;-68
2023/08/06 00:44:24;;;;;;;0.60;0.60;;;15.60;99.90;;;;;;5147401;28;20483;-69
2023/08/06 00:46:58;;;;;;;0.80;0.80;;;15.50;99.90;;;;;;5179755;28;20348;-69
2023/08/06 00:49:32;;;;;;;0.60;0.60;;;15.50;99.90;;;;;;5194729;28;20044;-70
2023/08/06 00:52:09;;;;;;;0.52;0.52;;;15.40;99.90;;;;;;5181139;28;20041;-73
2023/08/06 00:54:41;;;;;;;0.50;0.50;;;15.40;99.90;;;;;;5184761;28;20028;-70
2023/08/06 00:57:20;;;;;;;0.63;0.63;;;15.30;99.90;;;;;;5165650;28;20053;-69
2023/08/06 00:59:52;;;;;;;0.60;0.60;;;15.40;99.90;;;;;;5166135;28;20068;-71
2023/08/06 01:02:26;;;;;;;0.68;0.60;;;15.40;99.90;;;;;;5174185;23;20048;-69
2023/08/06 01:04:58;;;;;;;;;;;15.30;99.90;;;;;;5104228;28;20086;-69
2023/08/06 01:08:02;;;;;;;0.60;0.60;;;15.30;99.90;;;;;;5074948;29;19919;-70
2023/08/06 01:10:53;;;;;;;0.60;0.60;;;15.30;99.90;;;;;;5094481;29;20039;-69
2023/08/06 01:13:49;;;;;;;0.52;0.52;;;15.30;99.90;;;;;;5108330;28;20041;-68
2023/08/06 01:16:26;;;;;;;0.40;0.40;;;15.30;99.90;;;;;;5092987;28;20051;-69
2023/08/06 01:18:58;;;;;;;0.52;0.52;;;15.20;99.90;;;;;;5115444;28;20437;-68
2023/08/06 01:21:35;;;;;;;0.40;0.40;;;15.30;99.90;;;;;;5114018;29;20042;-69
2023/08/06 01:24:11;;;;;;;0.80;0.80;;;15.30;99.90;;;;;;5096131;28;20044;-70
2023/08/06 01:27:09;;;;;;;0.50;0.50;;;15.30;99.90;;;;;;5063048;29;20039;-69
2023/08/06 01:30:02;;;;;;;0.60;0.60;;;15.20;99.90;;;;;;5140131;28;20056;-70
2023/08/06 01:32:39;;;;;;;0.60;0.60;;;15.20;99.90;;;;;;5129525;28;20048;-69
2023/08/06 01:35:15;;;;;;;0.70;0.70;;;15.20;99.90;;;;;;5094416;29;20042;-70
2023/08/06 01:37:50;;;;;;;0.70;0.70;;;15.20;99.90;;;;;;5093811;29;20040;-70
2023/08/06 01:40:26;;;;;;;0.60;0.60;;;15.20;99.90;;;;;;5109507;28;20031;-68
2023/08/06 01:43:00;;;;;;;0.80;0.80;;;15.20;99.90;;;;;;5106766;28;20526;-70
2023/08/06 01:45:33;;;;;;;0.82;0.82;;;15.20;99.90;;;;;;5092278;29;20047;-70
2023/08/06 01:48:10;;;;;;;0.80;0.80;;;15.20;99.90;;;;;;5093694;28;20051;-70
2023/08/06 01:50:44;;;;;;;0.70;0.70;;;15.20;99.90;;;;;;5092389;28;20038;-70
2023/08/06 01:53:16;;;;;;;0.70;0.70;;;15.20;99.90;;;;;;5131048;28;20137;-69
2023/08/06 01:55:53;;;;;;;0.82;0.82;;;15.20;99.90;;;;;;5067651;28;20044;-70
2023/08/06 01:58:24;;;;;;;0.75;0.75;;;15.20;99.90;;;;;;5093008;28;20043;-70
2023/08/06 02:00:56;;;;;;;0.57;0.57;;;15.20;99.90;;;;;;5108864;28;20532;-69
2023/08/06 02:03:27;;;;;;;0.90;0.90;;;15.20;99.90;;;;;;5083019;28;20052;-69
2023/08/06 02:06:02;;;;;;;0.90;0.90;;;15.20;99.90;;;;;;5110089;28;20040;-69
2023/08/06 02:08:39;;;;;;;0.90;0.90;;;15.10;99.90;;;;;;5093720;28;20243;-71
2023/08/06 02:11:11;;;;;;;0.77;0.77;;;15.20;99.90;;;;;;5076308;28;20052;-69
2023/08/06 02:13:45;;;;;;;0.80;0.80;;;15.20;99.90;;;;;;5093455;29;20056;-70
2023/08/06 02:16:20;;;;;;;1.08;1.08;;;15.20;99.90;;;;;;5089439;29;20056;-66
2023/08/06 02:18:54;;;;;;;0.70;0.70;;;15.20;99.90;;;;;;5091357;29;20059;-68
2023/08/06 02:21:28;;;;;;;0.70;0.70;;;15.20;99.90;;;;;;5172767;28;20493;-67
2023/08/06 02:24:03;;;;;;;0.80;0.80;;;15.20;99.90;;;;;;5078101;29;20523;-68
2023/08/06 02:26:37;;;;;;;0.70;0.70;;;15.30;99.90;;;;;;5160862;28;20448;-69
2023/08/06 02:29:08;;;;;;;0.95;0.95;;;15.30;99.90;;;;;;5077991;29;20043;-69
2023/08/06 02:31:45;;;;;;;0.98;0.98;;;15.30;99.90;;;;;;5076248;29;20051;-68
2023/08/06 02:34:17;;;;;;;0.70;0.70;;;15.20;99.90;;;;;;5176871;28;20032;-68
2023/08/06 02:36:49;;;;;;;1.00;1.00;;;15.20;99.90;;;;;;5109232;28;20222;-68
2023/08/06 02:39:20;;;;;;;0.88;0.88;;;15.20;99.90;;;;;;5107968;29;20034;-67
2023/08/06 02:41:55;;;;;;;0.70;0.70;;;15.20;99.90;;;;;;5090199;28;20689;-68
2023/08/06 02:44:29;;;;;;;1.00;1.00;;;15.20;99.90;;;;;;5076915;28;20043;-68
2023/08/06 02:47:06;;;;;;;1.48;0.60;;;15.20;99.90;;;;;;5089035;28;20048;-68
2023/08/06 02:49:38;;;;;;;0.73;0.73;;;15.20;99.90;;;;;;5059604;28;20044;-67
2023/08/06 02:52:17;;;;;;;0.85;0.80;;;15.30;99.90;;;;;;5103635;28;20036;-68
2023/08/06 02:54:49;;;;;;;0.88;0.88;;;15.30;99.90;;;;;;5078873;28;20035;-67
2023/08/06 02:57:21;;;;;;;0.88;0.88;;;15.40;99.90;;;;;;5091402;29;20076;-68
2023/08/06 02:59:53;;;;;;;1.20;1.10;;;15.40;99.90;;;;;;5095218;29;20339;-65
2023/08/06 03:02:30;;;;;;;0.85;0.85;;;15.40;99.90;;;;;;5092088;28;20066;-67
2023/08/06 03:05:03;;;;;;;0.90;0.90;;;15.50;99.90;;;;;;5099529;28;20044;-66
2023/08/06 03:07:36;;;;;;;0.82;0.82;;;15.50;99.90;;;;;;5092082;29;20056;-68
2023/08/06 03:10:11;;;;;;;1.40;1.23;;;15.60;99.90;;;;;;5092609;29;20052;-66
2023/08/06 03:12:48;;;;;;;1.15;1.00;;;15.60;99.90;;;;;;5095872;28;20434;-67
2023/08/06 03:15:22;;;;;;;1.08;1.00;;;15.60;99.90;;;;;;5058045;29;20128;-68
2023/08/06 03:17:56;;;;;;;2.38;0.93;;;15.60;99.90;;;;;;5071574;28;20397;-67
2023/08/06 03:20:32;;;;;;;1.13;1.10;;;15.70;99.90;;;;;;5096894;29;20043;-68
2023/08/06 03:23:06;;;;;;;0.95;0.95;;;15.70;99.90;;;;;;5093262;29;20050;-69
2023/08/06 03:25:41;;;;;;;;;;;15.70;99.90;;;;;;5109731;29;20036;-66
2023/08/06 03:28:12;;;;;;;1.52;1.00;;;15.70;99.90;;;;;;5093875;29;20390;-67
2023/08/06 03:30:45;;;;;;;1.30;1.20;;;15.70;99.90;;;;;;5076762;28;20233;-68
2023/08/06 03:33:17;;;;;;;1.55;1.30;;;15.80;99.90;;;;;;5093199;29;20371;-67
2023/08/06 03:35:54;;;;;;;1.30;1.20;;;15.70;99.90;;;;;;5093667;29;20042;-67
2023/08/06 03:38:29;;;;;;;1.40;1.30;;;15.70;99.90;;;;;;5072950;29;20048;-67
2023/08/06 03:41:01;;;;;;;1.05;1.00;;;15.70;99.90;;;;;;5088190;28;20052;-68
2023/08/06 03:43:32;;;;;;;2.20;1.38;;;15.80;99.90;;;;;;5094386;29;20055;-67
2023/08/06 03:46:08;;;;;;;1.42;1.33;;;15.80;99.90;;;;;;5076182;29;20044;-67
2023/08/06 03:48:40;;;;;;;1.17;1.08;;;15.80;99.90;;;;;;5075248;28;20052;-67
2023/08/06 03:51:21;;;;;;;1.50;1.40;;;15.90;99.90;;;;;;5155800;28;20422;-68
2023/08/06 03:53:55;;;;;;;1.40;1.30;;;15.90;99.90;;;;;;5141018;28;20043;-67
2023/08/06 03:56:28;;;;;;;1.40;1.30;;;15.90;99.90;;;;;;5145197;28;20086;-66
2023/08/06 03:59:03;;;;;;;1.30;1.20;;;15.90;99.90;;;;;;5081305;28;20050;-66
2023/08/06 04:01:38;;;;;;;1.08;1.08;;;15.90;99.90;;;;;;5094298;29;20055;-66
2023/08/06 04:04:10;;;;;;;0.75;0.75;;;16.00;99.90;;;;;;5095849;29;20043;-66
2023/08/06 04:06:41;;;;;;;1.30;1.20;;;16.00;99.90;;;;;;5095303;29;20047;-66
2023/08/06 04:09:16;;;;;;;1.23;1.13;;;16.00;99.90;;;;;;5096154;29;20058;-66
2023/08/06 04:11:50;;;;;;;1.63;1.52;;;16.00;99.90;;;;;;5096024;29;20055;-66
2023/08/06 04:14:25;;;;;;;2.70;1.40;;;16.00;99.90;;;;;;5081592;28;20048;-65
2023/08/06 04:17:00;;;;;;;1.30;1.20;;;16.00;99.90;;;;;;5094430;28;20057;-66
2023/08/06 04:19:33;;;;;;;1.30;1.20;;;16.00;99.90;;;;;;5092834;29;20047;-66
2023/08/06 04:22:05;;;;;;;2.08;1.40;;;16.00;99.90;;;;;;5077878;29;20409;-68
2023/08/06 04:24:36;;;;;;;1.38;1.25;;;16.00;99.90;;;;;;5095959;29;20046;-67
2023/08/06 04:27:09;;;;;;;1.70;1.23;;;16.00;99.90;;;;;;5094998;29;20562;-67
2023/08/06 04:29:45;;;;;;;1.30;1.20;;;16.00;99.90;;;;;;5096007;29;20708;-67
2023/08/06 04:32:20;;;;;;;1.30;1.20;;;16.00;99.90;;;;;;5094019;29;20032;-67
2023/08/06 04:34:59;;;;;;;1.15;1.05;;;16.00;99.90;;;;;;5144623;28;20052;-66
2023/08/06 04:37:33;;;;;;;1.52;1.42;;;16.10;99.90;;;;;;5158596;28;20062;-69
2023/08/06 04:40:14;;;;;;;1.30;1.20;;;16.00;99.90;;;;;;5095682;28;20062;-68
2023/08/06 04:42:47;;;;;;;1.40;1.30;;;16.10;99.90;;;;;;5095419;28;20039;-68
2023/08/06 04:45:25;;;;;;;1.63;1.52;;;16.10;99.90;;;;;;5093905;29;20047;-70
2023/08/06 04:48:02;;;;;;;1.60;1.50;;;16.10;99.90;;;;;;5088373;29;20060;-68
2023/08/06 04:50:36;;;;;;;2.50;1.90;;;16.10;99.90;;;;;;5094397;29;20502;-69
2023/08/06 04:53:12;;;;;;;1.35;1.25;;;16.10;99.90;;;;;;5095671;29;20043;-70
2023/08/06 04:55:47;;;;;;;1.33;1.20;;;16.10;99.90;;;;;;5080133;29;20056;-68
2023/08/06 04:58:21;;;;;;;1.58;1.48;;;16.10;99.90;;;;;;5093647;29;20039;-68
2023/08/06 05:00:55;;;;;;;2.00;1.40;;;16.10;99.90;;;;;;5093270;29;20519;-66
2023/08/06 05:03:27;;;;;;;1.80;1.70;;;16.10;99.90;;;;;;5092937;28;20058;-67
2023/08/06 05:06:01;;;;;;;1.60;1.50;;;16.20;99.90;;;;;;5094619;29;20042;-67
2023/08/06 05:08:32;;;;;;;1.23;1.13;;;16.10;99.90;;;;;;5086490;29;20036;-67
2023/08/06 05:11:04;;;;;;;1.80;1.50;;;16.10;99.90;;;;;;5158393;28;20480;-67
2023/08/06 05:13:36;;;;;;;1.30;1.20;;;16.20;99.90;;;;;;5095081;28;20040;-68
2023/08/06 05:16:07;;;;;;;1.38;1.27;;;16.20;99.90;;;;;;5093776;28;20048;-66
2023/08/06 05:18:46;;;;;;;1.00;1.00;;;16.10;99.90;;;;;;5076589;29;20476;-66
2023/08/06 05:21:18;;;;;;;2.08;1.40;;;16.20;99.90;;;;;;5094997;29;20054;-70
2023/08/06 05:23:52;;;;;;;1.55;1.45;;;16.20;99.90;;;;;;5090326;29;20042;-68
2023/08/06 05:26:23;;;;;;;1.38;1.27;;;16.20;93.10;;;;;;5095238;29;20046;-67
2023/08/06 05:28:55;;;;;;;1.30;1.20;;;16.20;88.10;;;;;;5091490;28;20056;-69
2023/08/06 05:31:31;;;;;;;1.25;1.17;;;16.30;97.20;;;;;;5142643;28;20184;-69
2023/08/06 05:34:04;;;;;;;1.55;1.30;;;16.20;99.90;;;;;;5079427;29;20608;-68
2023/08/06 05:36:43;;;;;;;1.10;1.10;;;16.30;57.20;;;;;;5095918;29;20074;-67
2023/08/06 05:39:16;;;;;;;1.60;1.50;;;16.30;55.90;;;;;;5070801;29;20526;-68
2023/08/06 05:41:56;;;;;;;1.38;1.25;;;16.40;1.00;;;;;;5077427;29;20055;-68
2023/08/06 05:44:30;;;;;;;1.30;1.15;;;16.40;25.40;;;;;;5076649;28;20367;-70
2023/08/06 05:47:06;;;;;;;1.40;1.30;;;16.50;1.00;;;;;;5094862;28;20048;-70
2023/08/06 05:49:41;;;;;;;1.33;1.23;;;16.50;1.00;;;;;;5078912;28;20058;-67
2023/08/06 05:52:13;;;;;;;1.50;1.40;;;16.60;1.00;;;;;;5090571;29;20576;-67
2023/08/06 05:54:44;;;;;;;1.10;1.10;;;16.60;1.00;;;;;;5090255;29;20124;-68
2023/08/06 05:57:19;;;;;;;1.30;1.20;;;16.60;1.00;;;;;;5092279;29;20047;-67
2023/08/06 05:59:53;;;;;;;1.10;1.10;;;16.70;1.00;;;;;;5070027;29;20052;-68
2023/08/06 06:02:26;;;;;;;1.67;1.10;;;16.70;1.00;;;;;;5159028;28;20384;-68
2023/08/06 06:04:58;;;;;;;1.60;1.50;;;16.70;1.00;;;;;;5094587;29;20042;-68
2023/08/06 06:07:35;;;;;;;1.30;1.20;;;16.80;1.00;;;;;;5090661;28;20050;-68
2023/08/06 06:10:09;;;;;;;1.38;1.27;;;16.80;1.00;;;;;;5060097;29;20062;-69
2023/08/06 06:12:44;;;;;;;1.40;1.00;;;16.80;1.00;;;;;;5058927;29;20051;-67
2023/08/06 06:15:16;;;;;;;1.27;1.13;;;16.80;1.00;;;;;;5057563;29;20052;-68
2023/08/06 06:17:50;;;;;;;1.20;1.10;;;16.80;1.00;;;;;;5060174;29;20056;-68
2023/08/06 06:20:27;;;;;;;1.20;1.10;;;16.80;1.00;;;;;;5090716;29;20043;-69
2023/08/06 06:22:58;;;;;;;0.82;0.82;;;16.80;1.00;;;;;;5044860;28;20048;-68
2023/08/06 06:25:31;;;;;;;1.25;1.15;;;16.90;1.00;;;;;;5074300;29;20055;-68
2023/08/06 06:28:06;;;;;;;1.48;1.17;;;16.90;1.00;;;;;;5066648;28;20613;-68
2023/08/06 06:30:37;;;;;;;1.30;1.20;;;16.90;1.00;;;;;;5092831;29;20036;-65
2023/08/06 06:33:09;;;;;;;1.17;1.08;;;16.90;1.00;;;;;;5062064;29;20048;-68
2023/08/06 06:35:44;;;;;;;1.45;1.35;;;16.90;1.00;;;;;;5092942;29;20047;-68
2023/08/06 06:38:16;;;;;;;0.88;0.88;;;17.00;1.00;;;;;;5109109;28;20054;-68
2023/08/06 06:40:58;;;;;;;1.20;1.20;;;17.10;1.00;;;;;;5101462;29;20055;-70
2023/08/06 06:43:30;;;;;;;1.27;1.17;;;17.10;1.00;;;;;;5095128;29;20043;-69
2023/08/06 06:46:03;;;;;;;1.00;1.00;;;17.10;1.00;;;;;;5076467;29;20078;-69
2023/08/06 06:48:37;;;;;;;1.00;1.00;;;17.10;1.00;;;;;;5046595;29;20044;-69
2023/08/06 06:51:12;;;;;;;1.05;1.00;;;17.10;1.00;;;;;;5102722;28;20048;-67
2023/08/06 06:53:50;;;;;;;1.05;1.05;;;17.10;1.00;;;;;;5089142;28;20047;-69
2023/08/06 06:56:23;;;;;;;0.90;0.90;;;17.10;1.00;;;;;;5068303;29;20047;-67
2023/08/06 06:59:00;;;;;;;1.30;1.20;;;17.10;1.00;;;;;;5059541;28;20058;-69
2023/08/06 07:01:32;;;;;;;1.17;1.08;;;17.10;1.00;;;;;;5159526;28;20047;-66
2023/08/06 07:04:07;;;;;;;1.23;1.13;;;17.20;1.00;;;;;;5094976;29;20043;-68
2023/08/06 07:06:39;;;;;;;0.70;0.70;;;17.20;1.00;;;;;;5080484;29;20544;-68
2023/08/06 07:09:11;;;;;;;0.90;0.90;;;17.20;1.00;;;;;;5077161;29;20055;-68
2023/08/06 07:11:44;;;;;;;0.90;0.90;;;17.20;1.00;;;;;;5091192;28;20044;-66
2023/08/06 07:14:17;;;;;;;0.95;0.95;;;17.20;1.00;;;;;;5094047;28;20058;-68
2023/08/06 07:16:54;;;;;;;1.10;1.10;;;17.10;1.00;;;;;;5071678;28;20055;-68
2023/08/06 07:19:29;;;;;;;0.90;0.90;;;17.20;1.00;;;;;;5145460;28;20059;-70
2023/08/06 07:22:02;;;;;;;0.90;0.90;;;17.20;1.00;;;;;;5078073;28;20052;-69
2023/08/06 07:24:36;;;;;;;1.08;0.98;;;17.30;1.00;;;;;;5077120;29;20044;-68
2023/08/06 07:27:13;;;;;;;0.98;0.98;;;17.40;1.00;;;;;;5103650;29;20149;-69
2023/08/06 07:29:48;;;;;;;0.85;0.85;;;17.40;1.00;;;;;;5175608;28;20044;-68
2023/08/06 07:32:20;;;;;;;0.82;0.82;;;17.60;1.00;;;;;;5075220;28;20040;-69
2023/08/06 07:34:59;;;;;;;1.33;1.23;;;17.60;1.00;;;;;;5144503;28;20056;-69
2023/08/06 07:37:33;;;;;;;0.82;0.82;;;17.60;1.00;;;;;;5082920;29;20538;-70
2023/08/06 07:40:11;;;;;;;2.17;1.00;;;17.90;1.00;;;;;;5096269;28;20031;-69
2023/08/06 07:42:43;;;;;;;1.30;1.20;;;18.10;99.90;;;;;;5081546;29;20532;-69
2023/08/06 07:45:16;;;;;;;1.40;1.27;;;18.10;99.90;;;;;;5093175;29;20048;-69
2023/08/06 07:47:54;;;;;;;1.23;1.17;;;18.00;99.90;;;;;;5093078;29;20176;-68
2023/08/06 07:50:28;;;;;;;1.20;1.13;;;18.00;99.90;;;;;;5082595;29;20350;-71
2023/08/06 07:53:01;;;;;;;1.60;1.50;;;17.90;99.90;;;;;;5097615;29;20334;-68
2023/08/06 07:55:33;;;;;;;1.27;1.17;;;17.70;99.90;;;;;;5094256;29;20366;-68
2023/08/06 07:58:10;;;;;;;1.05;1.05;;;17.70;99.90;;;;;;5088983;29;20244;-68
2023/08/06 08:00:45;;;;;;;1.52;1.42;;;18.00;99.90;;;;;;5077510;29;20205;-67
2023/08/06 08:03:22;;;;;;;1.02;0.95;;;18.20;99.90;;;;;;5092227;28;20543;-67
2023/08/06 08:05:58;;;;;;;1.98;1.50;;;18.00;99.90;;;;;;5095948;29;20031;-68
2023/08/06 08:08:30;;;;;;;1.40;1.30;;;17.80;99.90;;;;;;5086942;28;20047;-71
2023/08/06 08:11:02;;;;;;;1.30;1.20;;;17.90;99.90;;;;;;5062256;29;20050;-68
2023/08/06 08:13:34;;;;;;;1.30;1.20;;;17.90;99.90;;;;;;5079797;28;20062;-68
2023/08/06 08:16:08;;;;;;;1.60;1.50;;;18.00;99.90;;;;;;5159947;28;20046;-69
2023/08/06 08:18:43;;;;;;;;;;;17.80;99.90;;;;;;5096354;29;20043;-68
2023/08/06 08:21:15;;;;;;;2.00;1.90;;;17.70;99.90;;;;;;5146826;28;20152;-69
2023/08/06 08:23:49;;;;;;;1.50;1.40;;;17.80;99.90;;;;;;5140104;28;20047;-67
2023/08/06 08:26:20;;;;;;;1.60;1.50;;;17.70;99.90;;;;;;5145767;28;20078;-69
2023/08/06 08:28:56;;;;;;;1.70;1.60;;;17.80;99.90;;;;;;5081007;28;20477;-67
2023/08/06 08:31:28;;;;;;;1.15;1.10;;;17.80;99.90;;;;;;5078743;29;20483;-67
2023/08/06 08:34:00;;;;;;;1.20;1.10;;;17.90;99.90;;;;;;5065136;28;20054;-67
2023/08/06 08:36:35;;;;;;;1.23;1.13;;;17.80;99.90;;;;;;5080157;29;20047;-66
2023/08/06 08:39:15;;;;;;;2.15;1.40;;;17.90;99.90;;;;;;5093258;29;20073;-69
2023/08/06 08:41:46;;;;;;;2.47;1.55;;;17.80;99.90;;;;;;5090204;29;20418;-67
2023/08/06 08:44:18;;;;;;;1.30;1.20;;;17.70;99.90;;;;;;5095757;29;20517;-70
2023/08/06 08:46:56;;;;;;;1.77;1.63;;;17.80;99.90;;;;;;5089763;28;20219;-67
2023/08/06 08:49:34;;;;;;;1.88;1.70;;;17.80;99.90;;;;;;5093811;29;20032;-68
2023/08/06 08:52:10;;;;;;;1.70;1.60;;;17.70;99.90;;;;;;5094716;29;20034;-67
2023/08/06 08:54:45;;;;;;;2.30;2.10;;;17.90;99.90;;;;;;5079461;29;20048;-65
2023/08/06 08:57:19;;;;;;;1.52;1.42;;;17.70;99.90;;;;;;5094312;29;20035;-67
2023/08/06 08:59:53;;;;;;;2.05;1.90;;;17.60;99.90;;;;;;5081101;28;20058;-69
2023/08/06 09:02:31;;;;;;;1.73;1.63;;;17.50;1.00;;;;;;5088581;28;20205;-70
2023/08/06 09:05:07;;;;;;;2.53;1.95;;;17.50;1.00;;;;;;5157217;28;20044;-67
2023/08/06 09:07:51;;;;;;;2.10;1.90;;;17.60;1.00;;;;;;5091429;28;20508;-67
2023/08/06 09:10:24;;;;;;;1.77;1.55;;;17.60;99.90;;;;;;5093818;28;20059;-68
2023/08/06 09:13:03;;;;;;;2.05;1.90;;;17.60;99.90;;;;;;5078493;29;20363;-69
2023/08/06 09:15:38;;;;;;;1.85;1.70;;;17.60;99.90;;;;;;5091456;29;20039;-69
2023/08/06 09:18:13;;;;;;;2.00;1.88;;;17.60;1.00;;;;;;5078947;29;20048;-68
2023/08/06 09:20:44;;;;;;;1.70;1.60;;;17.50;99.90;;;;;;5085217;29;20051;-68
2023/08/06 09:23:21;;;;;;;1.85;1.50;;;17.50;99.90;;;;;;5094890;28;20047;-68
2023/08/06 09:25:53;;;;;;;2.00;1.90;;;17.50;1.00;;;;;;5095281;29;20256;-70
2023/08/06 09:28:37;;;;;;;4.43;1.70;;;17.50;1.00;;;;;;5094500;29;20214;-68
2023/08/06 09:31:12;;;;;;;1.67;1.58;;;17.40;1.00;;;;;;5141871;28;20402;-68
2023/08/06 09:33:49;;;;;;;1.80;1.70;;;17.40;1.00;;;;;;5062382;28;20261;-68
2023/08/06 09:36:25;;;;;;;2.38;2.08;;;17.20;1.00;;;;;;5125209;28;20026;-69
2023/08/06 09:38:59;;;;;;;1.73;1.63;;;17.10;1.00;;;;;;5069229;29;20039;-68
2023/08/06 09:41:33;;;;;;;1.95;1.60;;;17.10;1.00;;;;;;5148507;28;20048;-68
2023/08/06 09:44:25;;;;;;;2.00;1.80;;;17.20;1.00;;;;;;5095252;28;20043;-70
2023/08/06 09:47:04;;;;;;;2.30;2.05;;;17.20;1.00;;;;;;5089592;29;20040;-68
2023/08/06 09:49:45;;;;;;;2.05;1.33;;;17.20;1.00;;;;;;5150391;28;20044;-68
2023/08/06 09:52:20;;;;;;;3.55;1.95;;;17.20;1.00;;;;;;5103463;29;20052;-68
2023/08/06 09:54:51;;;;;;;;;;;17.10;1.00;;;;;;5095056;29;20039;-70
2023/08/06 09:57:25;;;;;;;1.67;1.58;;;17.00;1.00;;;;;;5089868;29;19919;-70
2023/08/06 09:59:59;;;;;;;2.13;1.90;;;16.50;99.90;;;;;;5087159;28;20058;-71
2023/08/06 10:02:33;;;;;;;2.17;1.98;;;16.20;99.90;;;;;;5091647;29;20035;-70
2023/08/06 10:05:08;;;;;;;2.13;1.92;;;16.00;99.90;;;;;;5094358;29;20201;-69
2023/08/06 10:07:46;;;;;;;1.92;1.80;;;15.90;99.90;;;;;;5093974;29;20301;-67
2023/08/06 10:10:19;;;;;;;1.90;1.80;;;15.90;99.90;;;;;;5087169;29;20042;-68
2023/08/06 10:13:04;;;;;;;2.20;2.00;;;15.90;99.90;;;;;;5080372;28;20250;-68
2023/08/06 10:15:40;;;;;;;2.08;1.88;;;15.90;99.90;;;;;;5092451;29;20039;-68
2023/08/06 10:18:21;;;;;;;2.13;1.73;;;15.80;99.90;;;;;;5079031;29;20337;-67
2023/08/06 10:20:58;;;;;;;2.50;2.28;;;15.80;99.90;;;;;;5084380;29;20279;-69
2023/08/06 10:23:38;;;;;;;2.00;1.90;;;15.80;99.90;;;;;;5073019;28;20426;-68
2023/08/06 10:26:17;;;;;;;2.10;1.90;;;15.80;99.90;;;;;;5093845;29;20051;-68
2023/08/06 10:28:56;;;;;;;2.17;2.08;;;15.80;99.90;;;;;;5076268;28;20523;-70
2023/08/06 10:31:55;;;;;;;2.40;2.10;;;15.70;99.90;;;;;;5060914;28;20359;-75
2023/08/06 10:34:58;;;;;;;3.25;2.30;;;15.70;99.90;;;;;;5160878;28;20389;-74
2023/08/06 10:37:36;;;;;;;2.97;2.50;;;15.50;99.90;;;;;;5102382;28;20040;-72
2023/08/06 10:40:14;;;;;;;3.72;2.75;;;15.50;99.90;;;;;;5093388;29;20035;-71
2023/08/06 10:42:47;;;;;;;4.53;2.97;;;15.50;99.90;;;;;;5076346;29;20392;-70
2023/08/06 10:45:24;;;;;;;3.55;2.33;;;15.70;99.90;;;;;;5090612;29;20150;-69
2023/08/06 10:47:57;;;;;;;2.28;2.08;;;15.80;99.90;;;;;;5077914;29;20043;-69
2023/08/06 10:50:33;;;;;;;2.10;1.90;;;15.90;99.90;;;;;;5094097;29;20034;-68
2023/08/06 10:53:08;;;;;;;1.85;1.75;;;16.20;99.90;;;;;;5078101;29;20039;-67
2023/08/06 10:55:41;;;;;;;1.75;1.60;;;16.50;99.90;;;;;;5092942;28;20050;-68
2023/08/06 10:58:16;;;;;;;1.60;1.50;;;16.80;1.00;;;;;;5092572;29;20031;-67
2023/08/06 11:00:47;;;;;;;1.77;1.67;;;17.10;1.00;;;;;;5087800;29;20024;-67
2023/08/06 11:03:22;;;;;;;1.73;1.60;;;17.30;1.00;;;;;;5080434;28;20507;-67
2023/08/06 11:05:59;;;;;;;2.65;1.63;;;17.50;1.00;;;;;;5092552;29;20252;-67
2023/08/06 11:08:41;;;;;;;1.83;1.73;;;17.60;1.00;;;;;;5094677;28;20043;-69
2023/08/06 11:11:19;;;;;;;1.40;1.30;;;17.80;1.00;;;;;;5082291;28;20039;-67
2023/08/06 11:13:53;;;;;;;2.90;1.95;;;17.70;1.00;;;;;;5105861;28;20336;-65
2023/08/06 11:16:31;;;;;;;1.50;1.40;;;17.80;1.00;;;;;;5096549;29;20075;-67
2023/08/06 11:19:09;;;;;;;1.48;1.17;;;17.70;99.90;;;;;;5093868;29;20071;-67
2023/08/06 11:21:47;;;;;;;2.00;1.90;;;17.70;1.00;;;;;;5080413;29;20035;-67
2023/08/06 11:24:19;;;;;;;1.50;1.40;;;17.60;99.90;;;;;;5092376;28;20046;-67
2023/08/06 11:26:51;;;;;;;1.67;1.58;;;17.70;99.90;;;;;;5081148;29;20043;-68
2023/08/06 11:29:23;;;;;;;2.05;1.80;;;17.70;99.90;;;;;;5093931;29;20124;-68
2023/08/06 11:32:04;;;;;;;1.73;1.63;;;17.70;99.90;;;;;;5095421;28;20070;-69
2023/08/06 11:34:42;;;;;;;1.48;1.38;;;17.70;99.90;;;;;;5097312;29;20098;-68
2023/08/06 11:37:26;;;;;;;1.75;1.65;;;17.60;99.90;;;;;;5080039;29;20372;-68
2023/08/06 11:40:00;;;;;;;1.50;1.40;;;17.50;99.90;;;;;;5097336;29;20516;-66
2023/08/06 11:42:32;;;;;;;1.77;1.65;;;17.40;1.00;;;;;;5079977;29;20039;-67
2023/08/06 11:45:04;;;;;;;1.60;1.50;;;17.30;1.00;;;;;;5095844;29;20042;-68
2023/08/06 11:47:42;;;;;;;1.60;1.50;;;17.30;99.90;;;;;;5112253;28;20040;-68
2023/08/06 11:50:26;;;;;;;1.77;1.23;;;17.30;1.00;;;;;;5081197;28;20039;-66
2023/08/06 11:53:04;;;;;;;1.75;1.65;;;17.40;99.90;;;;;;5096107;29;20048;-66
2023/08/06 11:55:36;;;;;;;2.35;1.63;;;17.40;1.00;;;;;;5094627;29;20038;-67
2023/08/06 11:58:14;;;;;;;1.55;1.45;;;17.20;1.00;;;;;;5096285;28;20043;-67
2023/08/06 12:00:51;;;;;;;1.95;1.75;;;16.90;1.00;;;;;;5093624;29;20027;-66
2023/08/06 12:03:27;;;;;;;3.55;1.70;;;16.80;1.00;;;;;;5080235;28;20058;-68
2023/08/06 12:06:01;;;;;;;2.10;1.70;;;16.80;1.00;;;;;;5095649;29;20039;-69
2023/08/06 12:08:33;;;;;;;4.93;2.05;;;16.60;1.00;;;;;;5094480;29;20048;-67
2023/08/06 12:11:05;;;;;;;2.25;2.05;;;16.50;1.00;;;;;;5096208;29;20059;-69
2023/08/06 12:13:40;;;;;;;2.17;1.98;;;16.50;1.00;;;;;;5077347;29;20442;-67
2023/08/06 12:16:14;;;;;;;2.30;2.10;;;16.60;1.00;;;;;;5094647;29;20548;-68
2023/08/06 12:18:45;;;;;;;2.00;1.90;;;16.60;1.00;;;;;;5096218;29;20040;-67
2023/08/06 12:21:17;;;;;;;1.77;1.65;;;16.60;1.00;;;;;;5092525;29;20567;-67
2023/08/06 12:23:49;;;;;;;2.17;1.60;;;16.70;1.00;;;;;;5106843;29;20478;-67
2023/08/06 12:26:25;;;;;;;2.30;1.65;;;16.70;1.00;;;;;;5096239;29;20676;-66
2023/08/06 12:29:02;;;;;;;2.65;2.00;;;16.70;1.00;;;;;;5077712;28;20443;-67
2023/08/06 12:31:39;;;;;;;2.10;1.88;;;16.70;1.00;;;;;;5161234;28;20059;-67
2023/08/06 12:34:15;;;;;;;2.63;2.33;;;16.70;1.00;;;;;;5095495;29;20054;-66
2023/08/06 12:36:46;;;;;;;1.83;1.60;;;16.80;1.00;;;;;;5112910;29;20550;-67
2023/08/06 12:39:20;;;;;;;2.47;1.85;;;16.90;1.00;;;;;;5095469;29;20039;-66
2023/08/06 12:41:57;;;;;;;2.42;2.03;;;17.00;1.00;;;;;;5092594;29;20032;-66
2023/08/06 12:44:28;;;;;;;1.70;1.60;;;17.20;1.00;;;;;;5141193;28;20267;-66
2023/08/06 12:47:00;;;;;;;1.90;1.77;;;17.40;1.00;;;;;;5079880;28;20058;-65
2023/08/06 12:49:34;;;;;;;3.15;1.80;;;17.50;1.00;;;;;;5062700;29;20064;-67
2023/08/06 12:52:07;;;;;;;;;;;17.60;1.00;;;;;;5081154;29;20036;-68
2023/08/06 12:54:39;;;;;;;1.80;1.70;;;17.80;1.00;;;;;;5095591;29;19921;-67
2023/08/06 12:57:15;;;;;;;2.35;1.75;;;17.90;1.00;;;;;;5079243;29;20051;-67
2023/08/06 12:59:49;;;;;;;1.77;1.67;;;18.10;99.90;;;;;;5094417;29;20051;-65
2023/08/06 13:02:29;;;;;;;2.20;2.00;;;18.10;99.90;;;;;;5093832;28;20540;-67
2023/08/06 13:05:05;;;;;;;1.85;1.65;;;18.30;99.90;;;;;;5075903;29;20044;-68
2023/08/06 13:07:36;;;;;;;1.98;1.80;;;18.50;99.90;;;;;;5086830;28;20077;-66
2023/08/06 13:10:13;;;;;;;2.08;1.88;;;18.70;99.90;;;;;;5153584;28;20043;-66
2023/08/06 13:12:47;;;;;;;2.00;1.58;;;18.80;1.00;;;;;;5097082;28;20073;-66
2023/08/06 13:15:20;;;;;;;2.03;1.80;;;18.80;35.20;;;;;;5093627;28;20408;-67
2023/08/06 13:17:52;;;;;;;1.92;1.77;;;19.00;99.70;;;;;;5095628;28;20274;-68
2023/08/06 13:20:33;;;;;;;1.50;1.40;;;19.20;23.30;;;;;;5082501;28;20048;-68
2023/08/06 13:23:09;;;;;;;1.40;1.25;;;19.00;1.00;;;;;;5091075;29;20048;-68
2023/08/06 13:25:43;;;;;;;1.50;1.40;;;19.10;1.00;;;;;;5093530;29;20046;-69
2023/08/06 13:28:15;;;;;;;1.60;1.50;;;19.20;1.00;;;;;;5090534;29;20055;-68
2023/08/06 13:30:50;;;;;;;1.42;1.33;;;19.40;1.00;;;;;;5156386;28;20054;-65
2023/08/06 13:33:26;;;;;;;;;;;19.40;1.00;;;;;;5095032;29;20252;-69